Time;durP1;ratioP1;P1;durP2;ratioP2;P2;SDS_P1;SDS_P2;PMS_P1;PMS_P2;Temp;Humidity;BMP_temperature;BMP_pressure;BME280_temperature;BME280_humidity;BME280_pressure;Samples;Min_cycle;Max_cycle;Signal;HPM_P1;HPM_P2
2021/06/25 00:01:29;;;;;;;16.95;13.48;;;17.60;75.10;;;;;;5074679;28;20037;-74
2021/06/25 00:03:55;;;;;;;17.80;12.68;;;17.60;75.10;;;;;;5088548;28;20043;-74
2021/06/25 00:06:21;;;;;;;18.55;14.25;;;17.50;75.20;;;;;;5088110;28;20094;-74
2021/06/25 00:08:47;;;;;;;15.73;13.15;;;17.50;75.30;;;;;;5070784;28;20020;-74
2021/06/25 00:11:13;;;;;;;15.05;12.35;;;17.40;75.30;;;;;;5075452;28;20039;-74
2021/06/25 00:13:39;;;;;;;15.52;13.88;;;17.40;75.50;;;;;;5054084;28;20536;-73
2021/06/25 00:16:05;;;;;;;15.68;14.00;;;17.30;75.70;;;;;;5055545;28;20036;-74
2021/06/25 00:18:31;;;;;;;17.70;13.82;;;17.30;75.90;;;;;;5078307;28;20054;-74
2021/06/25 00:20:57;;;;;;;19.38;14.68;;;17.20;76.00;;;;;;5082492;28;20500;-74
2021/06/25 00:23:22;;;;;;;17.05;13.80;;;17.20;76.10;;;;;;5075149;28;20036;-74
2021/06/25 00:25:48;;;;;;;18.17;12.75;;;17.10;76.10;;;;;;5067330;28;20028;-74
2021/06/25 00:28:14;;;;;;;21.45;13.90;;;17.10;76.30;;;;;;5084197;28;20028;-74
2021/06/25 00:30:40;;;;;;;16.63;14.88;;;17.00;76.40;;;;;;5082855;28;20462;-74
2021/06/25 00:33:06;;;;;;;15.73;14.15;;;17.00;76.30;;;;;;5073657;28;20029;-74
2021/06/25 00:35:32;;;;;;;19.35;14.93;;;17.00;76.40;;;;;;5070118;28;20085;-73
2021/06/25 00:37:58;;;;;;;16.35;14.70;;;16.90;76.40;;;;;;5085328;28;20035;-74
2021/06/25 00:40:24;;;;;;;19.23;14.50;;;16.80;76.50;;;;;;5082890;28;20032;-74
2021/06/25 00:42:49;;;;;;;16.55;14.75;;;16.80;76.50;;;;;;5084881;28;20021;-74
2021/06/25 00:45:19;;;;;;;19.77;14.77;;;16.70;76.40;;;;;;5080365;28;20397;-73
2021/06/25 00:47:49;;;;;;;20.00;14.30;;;16.70;76.60;;;;;;5087234;28;20025;-74
2021/06/25 00:50:21;;;;;;;19.52;14.52;;;16.60;76.60;;;;;;5073930;28;20035;-74
2021/06/25 00:52:51;;;;;;;16.33;14.63;;;16.60;76.60;;;;;;5075267;28;20017;-74
2021/06/25 00:55:17;;;;;;;16.83;15.13;;;16.50;76.60;;;;;;5056318;28;20033;-74
2021/06/25 00:57:43;;;;;;;16.80;14.63;;;16.50;76.60;;;;;;5072609;28;20042;-74
2021/06/25 01:00:09;;;;;;;21.17;15.48;;;16.40;76.80;;;;;;5074785;28;20032;-73
2021/06/25 01:02:35;;;;;;;18.45;15.95;;;16.40;76.90;;;;;;5076223;28;20063;-74
2021/06/25 01:05:00;;;;;;;24.30;16.20;;;16.30;77.00;;;;;;5093864;28;20051;-74
2021/06/25 01:07:30;;;;;;;18.42;14.60;;;16.30;77.00;;;;;;5091640;28;20028;-73
2021/06/25 01:09:56;;;;;;;17.17;15.35;;;16.20;77.00;;;;;;5074912;28;20074;-74
2021/06/25 01:12:22;;;;;;;21.10;16.48;;;16.20;77.00;;;;;;5078350;28;20481;-74
2021/06/25 01:14:48;;;;;;;17.27;15.07;;;16.20;77.00;;;;;;5074221;28;20086;-74
2021/06/25 01:17:41;;;;;;;20.13;17.15;;;16.10;77.00;;;;;;5064690;28;20041;-74
2021/06/25 01:20:13;;;;;;;20.90;16.50;;;16.10;77.10;;;;;;5068664;28;20036;-73
2021/06/25 01:22:41;;;;;;;19.48;15.23;;;16.10;77.30;;;;;;5094480;28;20078;-74
2021/06/25 01:25:20;;;;;;;23.75;17.75;;;16.00;77.40;;;;;;5085193;28;20630;-74
2021/06/25 01:27:55;;;;;;;19.88;17.80;;;16.00;77.50;;;;;;5075278;28;20469;-74
2021/06/25 01:30:26;;;;;;;21.40;17.30;;;15.90;77.70;;;;;;5075193;28;20031;-74
2021/06/25 01:32:53;;;;;;;20.33;18.08;;;15.90;77.90;;;;;;5082695;28;20073;-74
2021/06/25 01:35:19;;;;;;;20.92;17.70;;;15.90;78.00;;;;;;5092544;28;20032;-74
2021/06/25 01:37:45;;;;;;;23.02;17.90;;;15.90;78.10;;;;;;5092504;28;20415;-74
2021/06/25 01:40:13;;;;;;;19.75;16.88;;;15.80;78.10;;;;;;5075853;28;20043;-74
2021/06/25 01:42:40;;;;;;;24.10;16.90;;;15.80;78.20;;;;;;5063663;28;20039;-74
2021/06/25 01:45:12;;;;;;;19.52;16.65;;;15.80;78.20;;;;;;5072292;28;20513;-74
2021/06/25 01:47:40;;;;;;;20.25;16.25;;;15.80;78.20;;;;;;5075905;28;20025;-74
2021/06/25 01:50:08;;;;;;;17.23;15.43;;;15.70;78.20;;;;;;5073742;28;20059;-74
2021/06/25 01:52:34;;;;;;;21.95;17.65;;;15.70;78.20;;;;;;5071973;28;20687;-74
2021/06/25 01:55:00;;;;;;;18.92;16.92;;;15.60;78.20;;;;;;5091399;28;20056;-74
2021/06/25 01:57:26;;;;;;;20.48;16.15;;;15.60;78.40;;;;;;5072402;28;20036;-74
2021/06/25 01:59:51;;;;;;;22.27;17.52;;;15.60;78.60;;;;;;5074065;28;20033;-74
2021/06/25 02:02:17;;;;;;;21.63;17.60;;;15.50;78.70;;;;;;5091178;28;20024;-74
2021/06/25 02:04:43;;;;;;;23.17;17.58;;;15.50;78.80;;;;;;5092631;28;20030;-74
2021/06/25 02:07:08;;;;;;;20.52;18.35;;;15.50;78.80;;;;;;5073407;28;20099;-74
2021/06/25 02:09:34;;;;;;;21.58;17.27;;;15.50;78.80;;;;;;5072185;28;20035;-74
2021/06/25 02:12:00;;;;;;;18.85;16.95;;;15.40;78.80;;;;;;5065280;28;20029;-74
2021/06/25 02:14:26;;;;;;;20.23;15.90;;;15.40;78.90;;;;;;5053515;28;20044;-73
2021/06/25 02:16:52;;;;;;;18.65;16.23;;;15.40;79.60;;;;;;5073196;28;20036;-74
2021/06/25 02:19:17;;;;;;;20.15;16.63;;;15.30;79.00;;;;;;5074303;28;20033;-73
2021/06/25 02:21:43;;;;;;;23.08;15.75;;;15.20;79.10;;;;;;5085976;28;20036;-73
2021/06/25 02:24:09;;;;;;;20.38;17.40;;;15.20;79.20;;;;;;5073029;28;20032;-74
2021/06/25 02:26:35;;;;;;;19.40;17.35;;;15.10;79.20;;;;;;5062665;28;20037;-74
2021/06/25 02:29:00;;;;;;;20.08;16.58;;;15.10;79.30;;;;;;5068769;28;20035;-73
2021/06/25 02:31:26;;;;;;;25.73;19.15;;;15.00;79.30;;;;;;5056635;28;20486;-74
2021/06/25 02:33:52;;;;;;;27.50;18.95;;;15.00;79.60;;;;;;5088457;28;20036;-74
2021/06/25 02:36:17;;;;;;;25.17;19.38;;;14.90;80.00;;;;;;5086423;28;20428;-73
2021/06/25 02:38:43;;;;;;;25.05;19.08;;;14.80;80.20;;;;;;5078900;28;20127;-74
2021/06/25 02:41:08;;;;;;;23.70;18.85;;;14.80;80.20;;;;;;5070094;28;20115;-74
2021/06/25 02:43:34;;;;;;;27.92;18.88;;;14.80;80.20;;;;;;5091629;28;20071;-73
2021/06/25 02:46:00;;;;;;;26.55;18.42;;;14.80;80.20;;;;;;5073283;28;20036;-74
2021/06/25 02:48:26;;;;;;;21.50;17.05;;;14.80;80.10;;;;;;5083804;28;20686;-74
2021/06/25 02:50:51;;;;;;;19.48;17.38;;;14.70;80.00;;;;;;5053169;28;20025;-74
2021/06/25 02:53:17;;;;;;;21.73;17.65;;;14.70;79.80;;;;;;5081459;28;20028;-74
2021/06/25 02:55:52;;;;;;;21.77;17.02;;;14.60;79.70;;;;;;5093124;28;20074;-74
2021/06/25 02:58:22;;;;;;;18.92;16.92;;;14.70;79.70;;;;;;5090030;28;20024;-73
2021/06/25 03:00:48;;;;;;;19.52;16.85;;;14.60;79.50;;;;;;5078846;28;20020;-73
2021/06/25 03:03:15;;;;;;;21.50;17.23;;;14.60;79.50;;;;;;5084258;28;20054;-74
2021/06/25 03:05:40;;;;;;;21.70;16.85;;;14.50;79.40;;;;;;5093085;28;20525;-73
2021/06/25 03:08:06;;;;;;;20.95;17.88;;;14.50;79.50;;;;;;5082398;28;20115;-73
2021/06/25 03:10:32;;;;;;;19.33;17.15;;;14.40;79.50;;;;;;5072820;28;20021;-73
2021/06/25 03:12:58;;;;;;;20.58;18.10;;;14.40;79.60;;;;;;5073008;28;20059;-73
2021/06/25 03:15:23;;;;;;;18.20;15.80;;;14.30;79.60;;;;;;5091579;28;20074;-74
2021/06/25 03:17:49;;;;;;;19.98;16.45;;;14.30;79.70;;;;;;5091206;28;20472;-74
2021/06/25 03:20:15;;;;;;;20.33;17.13;;;14.20;79.70;;;;;;5086749;28;20119;-74
2021/06/25 03:22:41;;;;;;;21.92;17.45;;;14.20;79.70;;;;;;5062974;28;20033;-73
2021/06/25 03:25:07;;;;;;;20.45;16.77;;;14.20;79.80;;;;;;5042841;28;20092;-74
2021/06/25 03:27:33;;;;;;;23.65;17.83;;;14.20;80.00;;;;;;5068159;28;20474;-73
2021/06/25 03:29:59;;;;;;;21.63;18.35;;;14.20;79.90;;;;;;5072590;28;20039;-74
2021/06/25 03:32:25;;;;;;;22.52;19.13;;;14.10;79.70;;;;;;5072510;28;20032;-71
2021/06/25 03:34:50;;;;;;;19.10;16.50;;;14.10;79.80;;;;;;5086160;28;20033;-74
2021/06/25 03:37:16;;;;;;;23.73;17.95;;;14.10;79.70;;;;;;5056526;28;20409;-73
2021/06/25 03:39:41;;;;;;;20.88;17.45;;;14.00;79.90;;;;;;5094671;28;20047;-74
2021/06/25 03:42:07;;;;;;;22.85;18.33;;;14.00;80.00;;;;;;5094852;28;20111;-74
2021/06/25 03:44:33;;;;;;;22.38;18.10;;;14.00;80.00;;;;;;5094094;28;20051;-73
2021/06/25 03:46:59;;;;;;;20.58;15.85;;;14.00;80.20;;;;;;5096421;28;20451;-74
2021/06/25 03:49:24;;;;;;;16.90;15.10;;;14.00;80.20;;;;;;5078005;28;20020;-74
2021/06/25 03:51:50;;;;;;;20.20;17.30;;;14.10;80.20;;;;;;5096426;28;20032;-73
2021/06/25 03:54:16;;;;;;;21.63;17.30;;;14.20;80.30;;;;;;5078290;28;20039;-74
2021/06/25 03:56:43;;;;;;;19.73;16.98;;;14.20;80.30;;;;;;5096312;28;20490;-74
2021/06/25 03:59:08;;;;;;;20.00;16.73;;;14.20;80.30;;;;;;5093347;28;20115;-73
2021/06/25 04:01:34;;;;;;;19.42;17.40;;;14.20;80.30;;;;;;5095205;28;20127;-73
2021/06/25 04:03:59;;;;;;;20.10;16.88;;;14.30;80.50;;;;;;5094509;28;20501;-73
2021/06/25 04:06:25;;;;;;;23.77;17.08;;;14.30;81.30;;;;;;5065544;28;20480;-73
2021/06/25 04:08:51;;;;;;;20.73;17.27;;;14.40;80.70;;;;;;5093907;28;20028;-73
2021/06/25 04:11:20;;;;;;;22.58;16.88;;;14.40;80.70;;;;;;5065614;28;20029;-74
2021/06/25 04:13:46;;;;;;;;;;;14.50;80.70;;;;;;5057640;28;20486;-74
2021/06/25 04:16:12;;;;;;;22.67;17.02;;;14.50;80.50;;;;;;5095940;28;19965;-73
2021/06/25 04:18:38;;;;;;;21.35;18.10;;;14.50;80.80;;;;;;5079752;28;20032;-73
2021/06/25 04:21:04;;;;;;;22.63;18.38;;;14.60;81.00;;;;;;5074620;28;20039;-73
2021/06/25 04:23:29;;;;;;;23.90;20.33;;;14.60;81.10;;;;;;5074334;28;20531;-74
2021/06/25 04:25:55;;;;;;;27.65;22.35;;;14.70;81.20;;;;;;5084124;28;20029;-74
2021/06/25 04:28:21;;;;;;;25.42;20.20;;;14.70;81.30;;;;;;5074428;28;20078;-74
2021/06/25 04:30:47;;;;;;;25.45;21.52;;;14.80;81.60;;;;;;5076495;28;20017;-74
2021/06/25 04:33:13;;;;;;;23.85;19.27;;;14.90;81.90;;;;;;5075427;28;20150;-74
2021/06/25 04:35:41;;;;;;;24.20;20.42;;;15.00;82.00;;;;;;5069852;28;20017;-73
2021/06/25 04:38:07;;;;;;;29.13;21.75;;;15.10;81.90;;;;;;5095593;28;20027;-74
2021/06/25 04:40:36;;;;;;;23.65;20.98;;;15.20;81.70;;;;;;5093813;28;20027;-73
2021/06/25 04:43:02;;;;;;;31.55;22.77;;;15.30;81.70;;;;;;5079748;28;20024;-73
2021/06/25 04:45:27;;;;;;;23.40;20.80;;;15.30;81.50;;;;;;5065349;28;20073;-73
2021/06/25 04:47:53;;;;;;;31.95;23.35;;;15.40;81.50;;;;;;5077341;28;20097;-74
2021/06/25 04:50:19;;;;;;;27.35;21.02;;;15.50;81.60;;;;;;5095491;28;20021;-73
2021/06/25 04:52:45;;;;;;;25.30;21.40;;;15.50;81.50;;;;;;5076904;28;20531;-73
2021/06/25 04:55:11;;;;;;;30.52;24.60;;;15.60;81.20;;;;;;5074792;28;20420;-74
2021/06/25 04:57:37;;;;;;;30.52;24.05;;;15.70;81.30;;;;;;5092985;28;20032;-73
2021/06/25 05:00:06;;;;;;;28.15;22.55;;;15.70;81.20;;;;;;5093604;28;20455;-73
2021/06/25 05:02:31;;;;;;;29.63;24.00;;;15.80;81.40;;;;;;5094157;28;20024;-74
2021/06/25 05:04:57;;;;;;;31.25;24.63;;;15.90;81.50;;;;;;5088908;28;20063;-75
2021/06/25 05:07:23;;;;;;;26.75;23.23;;;15.90;81.50;;;;;;5074618;28;20057;-74
2021/06/25 05:09:48;;;;;;;31.25;25.33;;;16.00;81.60;;;;;;5061255;28;20570;-74
2021/06/25 05:12:14;;;;;;;34.20;25.88;;;16.00;81.50;;;;;;5078376;28;20029;-74
2021/06/25 05:14:40;;;;;;;32.70;26.60;;;16.10;81.50;;;;;;5076152;28;20499;-74
2021/06/25 05:17:06;;;;;;;37.30;27.80;;;16.10;81.30;;;;;;5094389;28;20507;-74
2021/06/25 05:19:31;;;;;;;36.30;26.02;;;16.20;81.10;;;;;;5077088;28;20055;-74
2021/06/25 05:21:57;;;;;;;34.00;27.27;;;16.20;81.00;;;;;;5088142;28;20043;-74
2021/06/25 05:24:23;;;;;;;34.05;26.40;;;16.40;81.10;;;;;;5094318;28;20092;-73
2021/06/25 05:26:49;;;;;;;41.08;28.85;;;16.40;81.10;;;;;;5080964;28;20037;-74
2021/06/25 05:29:14;;;;;;;34.40;25.83;;;16.50;81.00;;;;;;5072544;28;20033;-74
2021/06/25 05:31:40;;;;;;;39.22;28.15;;;16.50;80.90;;;;;;5072386;28;20381;-74
2021/06/25 05:34:06;;;;;;;32.20;26.38;;;16.60;80.90;;;;;;5074187;28;20039;-74
2021/06/25 05:36:31;;;;;;;39.38;29.88;;;16.60;80.90;;;;;;5074135;28;20040;-75
2021/06/25 05:38:57;;;;;;;37.67;29.95;;;16.60;80.90;;;;;;5064861;28;20029;-74
2021/06/25 05:41:22;;;;;;;40.13;30.83;;;16.70;81.10;;;;;;5082247;28;20063;-74
2021/06/25 05:43:48;;;;;;;39.92;31.00;;;16.70;81.10;;;;;;5084841;28;20052;-73
2021/06/25 05:46:13;;;;;;;38.65;28.55;;;16.70;81.20;;;;;;5073419;28;20029;-73
2021/06/25 05:48:40;;;;;;;37.83;28.75;;;16.70;81.10;;;;;;5082303;28;20028;-73
2021/06/25 05:51:06;;;;;;;36.88;29.08;;;16.80;81.10;;;;;;5088834;28;20025;-73
2021/06/25 05:53:32;;;;;;;46.60;31.55;;;16.80;81.00;;;;;;5072692;28;20036;-73
2021/06/25 05:55:58;;;;;;;36.85;28.75;;;16.90;81.00;;;;;;5073499;28;20051;-74
2021/06/25 05:58:24;;;;;;;38.15;27.55;;;16.90;80.90;;;;;;5056020;28;20485;-74
2021/06/25 06:00:49;;;;;;;42.03;31.35;;;17.00;80.80;;;;;;5074671;28;20036;-73
2021/06/25 06:03:15;;;;;;;41.65;32.10;;;17.10;80.50;;;;;;5073834;28;20036;-74
2021/06/25 06:05:42;;;;;;;39.20;29.08;;;17.20;80.00;;;;;;5075258;28;20504;-73
2021/06/25 06:08:08;;;;;;;41.33;31.98;;;17.30;79.80;;;;;;5092518;28;20119;-73
2021/06/25 06:10:34;;;;;;;39.60;29.15;;;17.40;79.50;;;;;;5077448;28;20133;-73
2021/06/25 06:13:00;;;;;;;38.85;31.15;;;17.50;79.20;;;;;;5073323;28;20497;-73
2021/06/25 06:15:26;;;;;;;46.00;31.98;;;17.60;79.00;;;;;;5087746;28;20023;-73
2021/06/25 06:17:52;;;;;;;33.97;27.80;;;17.70;78.80;;;;;;5079233;28;20576;-73
2021/06/25 06:20:20;;;;;;;36.05;26.73;;;17.80;78.20;;;;;;5093010;28;20043;-73
2021/06/25 06:31:16;;;;;;;33.67;23.40;;;18.20;75.10;;;;;;5075011;28;20085;-73
2021/06/25 06:33:49;;;;;;;27.50;21.65;;;18.30;74.10;;;;;;5076338;28;20063;-73
2021/06/25 06:36:25;;;;;;;25.00;21.10;;;18.40;73.50;;;;;;5091809;28;20070;-73
2021/06/25 06:38:52;;;;;;;31.05;21.63;;;18.50;72.90;;;;;;5075305;28;20028;-73
2021/06/25 06:41:19;;;;;;;31.02;21.42;;;18.60;71.60;;;;;;5055258;28;20071;-73
2021/06/25 06:43:46;;;;;;;24.92;19.48;;;18.70;71.00;;;;;;5050996;28;20060;-73
2021/06/25 06:46:13;;;;;;;24.23;18.77;;;18.80;70.40;;;;;;5054139;28;20686;-73
2021/06/25 06:48:40;;;;;;;27.38;19.58;;;18.90;69.10;;;;;;5066057;28;20482;-73
2021/06/25 06:51:06;;;;;;;25.48;20.23;;;19.10;69.60;;;;;;5053089;28;20040;-73
2021/06/25 06:53:32;;;;;;;26.05;17.83;;;19.10;69.50;;;;;;5085803;28;20400;-73
2021/06/25 06:55:59;;;;;;;29.27;19.38;;;19.20;69.30;;;;;;5071557;28;20032;-73
2021/06/25 06:58:25;;;;;;;21.73;18.27;;;19.20;69.10;;;;;;5076829;28;20496;-73
2021/06/25 07:00:50;;;;;;;23.45;16.73;;;19.10;69.20;;;;;;5071910;28;20056;-74
2021/06/25 07:03:16;;;;;;;21.00;17.63;;;19.10;69.40;;;;;;5072084;28;20056;-74
2021/06/25 07:05:41;;;;;;;21.05;16.50;;;19.10;69.50;;;;;;5073978;28;20550;-74
2021/06/25 07:08:07;;;;;;;22.25;16.75;;;19.10;69.60;;;;;;5072259;28;20025;-73
2021/06/25 07:10:33;;;;;;;18.98;15.85;;;19.20;68.60;;;;;;5089642;28;20108;-73
2021/06/25 07:12:58;;;;;;;21.42;17.25;;;19.30;68.70;;;;;;5079812;28;20477;-73
2021/06/25 07:15:24;;;;;;;24.17;17.85;;;19.50;68.20;;;;;;5054632;28;20729;-73
2021/06/25 07:17:50;;;;;;;21.73;14.85;;;19.60;67.10;;;;;;5082336;28;20036;-73
2021/06/25 07:20:15;;;;;;;18.25;16.15;;;19.70;67.10;;;;;;5080704;28;20043;-73
2021/06/25 07:22:41;;;;;;;22.98;16.20;;;19.70;66.00;;;;;;5076127;28;20036;-73
2021/06/25 07:25:07;;;;;;;21.23;15.68;;;19.80;66.70;;;;;;5090540;28;20032;-73
2021/06/25 07:27:35;;;;;;;19.30;15.55;;;19.70;66.30;;;;;;5088161;28;20032;-73
2021/06/25 07:30:01;;;;;;;20.42;14.70;;;19.70;66.30;;;;;;5072571;28;20418;-73
2021/06/25 07:32:28;;;;;;;18.50;14.85;;;19.60;67.30;;;;;;5075510;28;20100;-73
2021/06/25 07:34:53;;;;;;;21.02;14.50;;;19.60;67.50;;;;;;5086380;28;20115;-73
2021/06/25 07:37:19;;;;;;;23.15;14.75;;;19.50;67.60;;;;;;5091042;28;20107;-73
2021/06/25 07:39:45;;;;;;;20.25;14.45;;;19.50;67.70;;;;;;5086197;28;20115;-73
2021/06/25 07:42:10;;;;;;;16.92;15.13;;;19.50;67.80;;;;;;5091475;28;20031;-73
2021/06/25 07:44:36;;;;;;;19.23;15.32;;;19.50;67.30;;;;;;5078483;28;20055;-73
2021/06/25 07:47:01;;;;;;;22.60;14.75;;;19.50;67.90;;;;;;5078251;28;20025;-72
2021/06/25 07:49:27;;;;;;;18.95;14.88;;;19.40;67.30;;;;;;5073259;28;20064;-73
2021/06/25 07:51:53;;;;;;;19.08;13.63;;;19.40;67.30;;;;;;5082651;28;20020;-73
2021/06/25 07:54:20;;;;;;;20.55;14.82;;;19.40;67.40;;;;;;5076453;28;20035;-73
2021/06/25 07:56:45;;;;;;;17.73;13.95;;;19.40;67.10;;;;;;5086617;28;20385;-72
2021/06/25 07:59:11;;;;;;;20.88;15.02;;;19.40;67.80;;;;;;5090736;28;20031;-73
2021/06/25 08:01:37;;;;;;;20.17;14.18;;;19.30;67.60;;;;;;5085524;28;20545;-73
2021/06/25 08:04:02;;;;;;;18.38;14.20;;;19.30;67.30;;;;;;5084427;28;20052;-74
2021/06/25 08:06:29;;;;;;;20.88;13.63;;;19.40;67.90;;;;;;5071088;28;20135;-73
2021/06/25 08:08:55;;;;;;;23.95;14.35;;;19.40;68.00;;;;;;5072201;28;20047;-73
2021/06/25 08:11:21;;;;;;;18.63;13.57;;;19.40;67.80;;;;;;5072457;28;20979;-74
2021/06/25 08:13:46;;;;;;;23.92;14.38;;;19.50;67.70;;;;;;5086600;28;20069;-75
2021/06/25 08:16:12;;;;;;;21.80;14.50;;;19.50;67.50;;;;;;5090623;28;20032;-75
2021/06/25 08:18:38;;;;;;;20.92;14.55;;;19.50;67.00;;;;;;5070883;28;20037;-75
2021/06/25 08:21:04;;;;;;;21.17;14.90;;;19.50;67.50;;;;;;5082276;28;20036;-75
2021/06/25 08:23:29;;;;;;;18.15;13.40;;;19.60;67.30;;;;;;5089942;28;20039;-75
2021/06/25 08:25:55;;;;;;;17.40;13.45;;;19.50;67.00;;;;;;5059236;28;20036;-76
2021/06/25 08:28:21;;;;;;;18.05;13.85;;;19.50;67.40;;;;;;5080998;28;20025;-75
2021/06/25 08:30:47;;;;;;;19.80;13.82;;;19.60;68.00;;;;;;5078383;28;20082;-75
2021/06/25 08:33:12;;;;;;;24.75;13.55;;;19.70;67.90;;;;;;5058883;28;20492;-75
2021/06/25 08:35:38;;;;;;;24.38;14.10;;;19.70;68.10;;;;;;5074287;28;20029;-75
2021/06/25 08:38:04;;;;;;;19.38;14.38;;;19.80;67.90;;;;;;5078182;28;20435;-75
2021/06/25 08:40:29;;;;;;;18.35;13.65;;;20.00;66.80;;;;;;5076906;28;20037;-75
2021/06/25 08:42:55;;;;;;;19.15;14.32;;;20.00;65.60;;;;;;5075057;28;20063;-75
2021/06/25 08:45:21;;;;;;;21.55;14.40;;;20.10;64.70;;;;;;5075098;28;20405;-75
2021/06/25 08:47:53;;;;;;;21.27;14.45;;;20.30;64.40;;;;;;5078779;28;20032;-75
2021/06/25 08:50:23;;;;;;;15.73;13.13;;;20.50;62.70;;;;;;5074008;28;20115;-76
2021/06/25 08:52:51;;;;;;;17.08;13.40;;;20.80;62.60;;;;;;5075359;28;20089;-76
2021/06/25 08:55:18;;;;;;;17.15;12.95;;;21.20;62.60;;;;;;5089364;28;20020;-77
2021/06/25 08:57:43;;;;;;;17.48;11.82;;;21.60;60.50;;;;;;5087150;28;20047;-78
2021/06/25 09:00:12;;;;;;;16.85;11.70;;;21.90;59.00;;;;;;5090595;28;20032;-75
2021/06/25 09:02:38;;;;;;;16.27;11.73;;;22.10;58.60;;;;;;5093701;28;20028;-75
2021/06/25 09:05:08;;;;;;;15.45;10.38;;;22.30;58.10;;;;;;5077003;28;20127;-74
2021/06/25 09:07:41;;;;;;;13.13;10.13;;;22.40;57.20;;;;;;5094050;28;20158;-75
2021/06/25 09:10:07;;;;;;;10.27;8.82;;;22.50;56.30;;;;;;5095196;28;20546;-74
2021/06/25 09:12:33;;;;;;;10.80;9.20;;;22.60;56.00;;;;;;5088867;28;20106;-75
2021/06/25 09:15:14;;;;;;;13.15;8.70;;;22.70;54.30;;;;;;5073882;28;20064;-75
2021/06/25 09:17:55;;;;;;;12.10;8.18;;;22.60;53.70;;;;;;5074994;28;20112;-76
2021/06/25 09:20:36;;;;;;;14.52;8.45;;;22.50;54.30;;;;;;5077126;28;20037;-75
2021/06/25 09:23:13;;;;;;;10.45;7.75;;;22.30;54.80;;;;;;5074733;28;20025;-76
2021/06/25 09:25:58;;;;;;;9.45;7.40;;;22.20;55.10;;;;;;5088468;28;20032;-76
2021/06/25 09:28:33;;;;;;;10.00;8.63;;;22.00;54.30;;;;;;5054417;28;20021;-74
2021/06/25 09:30:59;;;;;;;9.48;7.72;;;21.80;55.10;;;;;;5077868;28;20385;-73
2021/06/25 09:33:25;;;;;;;9.63;7.75;;;21.70;55.30;;;;;;5076087;28;20031;-73
2021/06/25 09:35:53;;;;;;;10.98;7.70;;;21.60;54.70;;;;;;5089522;28;20497;-73
2021/06/25 09:38:39;;;;;;;9.85;7.50;;;21.60;55.10;;;;;;5080066;28;20024;-74
2021/06/25 09:41:18;;;;;;;11.18;7.95;;;21.50;55.30;;;;;;5079891;28;20405;-74
2021/06/25 09:43:53;;;;;;;11.43;8.63;;;21.50;55.60;;;;;;5074049;28;20033;-74
2021/06/25 09:46:48;;;;;;;18.10;8.48;;;21.50;55.70;;;;;;5074239;28;20013;-75
2021/06/25 09:49:16;;;;;;;10.57;8.23;;;21.50;56.00;;;;;;5088356;28;20043;-74
2021/06/25 09:51:54;;;;;;;14.52;8.52;;;21.50;56.30;;;;;;5075841;28;20539;-74
2021/06/25 09:54:19;;;;;;;13.75;8.80;;;21.60;56.20;;;;;;5073377;28;20049;-81
2021/06/25 10:02:19;;;;;;;9.60;7.97;;;21.60;56.10;;;;;;5075211;28;20052;-81
2021/06/25 10:04:54;;;;;;;10.95;8.05;;;21.80;56.20;;;;;;5073108;28;20028;-81
2021/06/25 10:07:22;;;;;;;10.50;8.02;;;21.90;56.00;;;;;;5074490;28;20078;-82
2021/06/25 10:09:51;;;;;;;10.32;7.90;;;21.90;55.40;;;;;;5075010;28;20027;-83
2021/06/25 10:12:18;;;;;;;10.93;8.18;;;21.90;55.30;;;;;;5074996;28;20037;-83
2021/06/25 10:14:45;;;;;;;12.25;8.55;;;22.00;55.50;;;;;;5092984;28;20028;-81
2021/06/25 10:17:12;;;;;;;11.35;8.52;;;22.20;55.10;;;;;;5094603;28;20031;-81
2021/06/25 10:19:42;;;;;;;12.27;8.52;;;22.20;55.60;;;;;;5094734;28;20036;-81
2021/06/25 10:22:09;;;;;;;10.02;8.27;;;22.30;55.40;;;;;;5081214;28;20031;-81
2021/06/25 10:24:36;;;;;;;11.88;9.05;;;22.50;55.50;;;;;;5073344;28;20417;-84
2021/06/25 10:27:04;;;;;;;10.75;8.73;;;22.70;55.40;;;;;;5074757;28;20028;-83
2021/06/25 10:29:37;;;;;;;15.02;9.63;;;23.00;55.40;;;;;;5073125;28;20036;-84
2021/06/25 10:32:07;;;;;;;11.32;9.50;;;23.30;53.50;;;;;;5074663;28;20389;-82
2021/06/25 10:34:34;;;;;;;13.20;10.15;;;23.50;53.50;;;;;;5073746;28;20025;-81
2021/06/25 10:37:02;;;;;;;15.98;9.45;;;23.70;52.60;;;;;;5072358;28;20116;-82
2021/06/25 10:39:31;;;;;;;15.00;10.68;;;23.80;52.50;;;;;;5081323;28;20032;-82
2021/06/25 10:41:57;;;;;;;;;;;23.80;53.60;;;;;;5091457;28;20055;-82
2021/06/25 10:44:43;;;;;;;10.70;9.38;;;23.80;52.30;;;;;;5084330;28;19923;-82
2021/06/25 10:47:17;;;;;;;14.05;9.27;;;23.80;52.20;;;;;;5075483;28;20028;-82
2021/06/25 10:50:14;;;;;;;11.90;9.75;;;23.90;52.00;;;;;;5070836;28;20445;-79
2021/06/25 10:52:41;;;;;;;14.57;9.95;;;24.00;52.00;;;;;;5084635;28;20389;-82
2021/06/25 10:55:12;;;;;;;13.90;9.32;;;24.10;52.70;;;;;;5092626;28;20031;-81
2021/06/25 10:57:50;;;;;;;15.90;10.18;;;24.30;52.50;;;;;;5085155;28;20107;-81
2021/06/25 11:00:37;;;;;;;15.82;9.75;;;24.40;51.50;;;;;;5082334;28;20036;-80
2021/06/25 11:03:03;;;;;;;12.45;8.85;;;24.70;50.60;;;;;;5083188;28;20035;-84
2021/06/25 11:05:35;;;;;;;14.73;10.10;;;25.00;50.60;;;;;;5081973;28;20036;-82
2021/06/25 11:08:20;;;;;;;11.23;9.45;;;25.00;50.10;;;;;;5088802;28;20106;-83
2021/06/25 11:10:53;;;;;;;12.55;8.90;;;25.10;51.10;;;;;;5093079;28;20023;-83
2021/06/25 11:13:22;;;;;;;10.88;8.88;;;25.20;51.70;;;;;;5070995;28;20029;-83
2021/06/25 11:15:50;;;;;;;15.15;10.13;;;25.30;52.20;;;;;;5072852;28;20027;-82
2021/06/25 11:18:26;;;;;;;12.43;9.00;;;25.40;51.30;;;;;;5071871;28;20059;-82
2021/06/25 11:20:58;;;;;;;15.68;10.27;;;25.40;50.60;;;;;;5074931;28;20034;-83
2021/06/25 11:23:38;;;;;;;12.50;8.73;;;25.40;50.10;;;;;;5076355;28;20530;-82
2021/06/25 11:26:14;;;;;;;14.32;9.07;;;25.40;51.00;;;;;;5058383;28;20116;-82
2021/06/25 11:28:43;;;;;;;15.18;8.73;;;25.30;50.10;;;;;;5057922;28;20092;-82
2021/06/25 11:31:12;;;;;;;11.93;8.65;;;25.20;50.70;;;;;;5053625;28;20109;-82
2021/06/25 11:33:56;;;;;;;10.73;8.80;;;25.30;50.60;;;;;;5053015;28;20433;-83
2021/06/25 11:36:48;;;;;;;14.77;8.85;;;25.40;49.70;;;;;;5052940;28;20017;-82
2021/06/25 11:39:17;;;;;;;11.15;7.97;;;25.40;49.60;;;;;;5053247;28;20474;-82
2021/06/25 11:41:56;;;;;;;15.57;8.18;;;25.40;50.00;;;;;;5052937;28;20504;-83
2021/06/25 11:44:35;;;;;;;15.48;8.93;;;25.60;50.20;;;;;;5061350;28;20570;-83
2021/06/25 11:47:05;;;;;;;14.63;9.30;;;25.60;49.80;;;;;;5073118;28;20056;-82
2021/06/25 11:49:37;;;;;;;14.48;9.05;;;25.80;49.60;;;;;;5073259;28;20071;-82
2021/06/25 11:52:17;;;;;;;10.90;9.05;;;25.90;49.60;;;;;;5071719;28;20472;-82
2021/06/25 11:54:46;;;;;;;11.23;8.25;;;26.00;48.40;;;;;;5076394;28;20078;-82
2021/06/25 11:57:20;;;;;;;11.38;7.95;;;26.00;48.00;;;;;;5076921;28;20481;-82
2021/06/25 12:00:00;;;;;;;13.20;8.40;;;26.10;48.00;;;;;;5076604;28;20032;-81
2021/06/25 12:02:26;;;;;;;10.85;8.15;;;26.20;47.70;;;;;;5076505;28;20071;-81
2021/06/25 12:04:53;;;;;;;9.85;7.68;;;26.10;48.20;;;;;;5076445;28;20071;-81
2021/06/25 12:07:20;;;;;;;9.70;7.28;;;26.10;48.80;;;;;;5076241;28;20050;-81
2021/06/25 12:09:51;;;;;;;8.02;6.80;;;26.30;48.90;;;;;;5075238;28;20493;-80
2021/06/25 12:12:30;;;;;;;16.00;7.40;;;26.40;48.70;;;;;;5074895;28;20048;-81
2021/06/25 12:14:59;;;;;;;9.60;6.82;;;26.40;47.20;;;;;;5076454;28;20503;-81
2021/06/25 12:17:41;;;;;;;9.88;7.70;;;26.50;47.50;;;;;;5085100;28;20035;-81
2021/06/25 12:20:26;;;;;;;8.60;7.13;;;26.40;47.10;;;;;;5095247;28;20149;-81
2021/06/25 12:22:55;;;;;;;9.60;8.07;;;26.30;47.80;;;;;;5096470;28;20024;-82
2021/06/25 12:25:35;;;;;;;8.65;6.80;;;26.30;47.30;;;;;;5095096;28;20039;-82
2021/06/25 12:28:17;;;;;;;8.63;7.60;;;26.30;48.60;;;;;;5096466;28;20066;-82
2021/06/25 12:30:48;;;;;;;12.30;7.88;;;26.30;47.90;;;;;;5095081;28;20115;-82
2021/06/25 12:33:16;;;;;;;11.50;7.97;;;26.30;47.80;;;;;;5096338;28;20469;-81
2021/06/25 12:35:50;;;;;;;10.32;7.30;;;26.40;47.90;;;;;;5096395;28;20073;-81
2021/06/25 12:38:19;;;;;;;13.77;7.20;;;26.50;48.20;;;;;;5094992;28;20036;-81
2021/06/25 12:40:50;;;;;;;12.80;7.47;;;26.80;48.00;;;;;;5094864;28;20377;-80
2021/06/25 12:43:21;;;;;;;10.02;7.45;;;27.00;47.60;;;;;;5096261;28;20024;-81
2021/06/25 12:45:54;;;;;;;9.90;7.43;;;27.00;47.70;;;;;;5095908;28;20051;-81
2021/06/25 12:48:29;;;;;;;9.27;7.40;;;26.90;48.00;;;;;;5096191;28;20024;-82
2021/06/25 12:51:10;;;;;;;9.85;7.07;;;26.60;48.40;;;;;;5091293;28;20035;-81